sensor_id;sensor_type;location;lat;lon;timestamp;P1;durP1;ratioP1;P2;durP2;ratioP2
35795;SDS011;21916;52.428;13.302;2024-01-15T00:01:50;14.05;;;6.50;;
35795;SDS011;21916;52.428;13.302;2024-01-15T00:04:15;10.85;;;6.15;;
35795;SDS011;21916;52.428;13.302;2024-01-15T00:06:41;13.60;;;7.15;;
35795;SDS011;21916;52.428;13.302;2024-01-15T00:09:07;9.57;;;4.82;;
35795;SDS011;21916;52.428;13.302;2024-01-15T00:11:32;13.85;;;6.50;;
35795;SDS011;21916;52.428;13.302;2024-01-15T00:13:58;12.77;;;6.47;;
35795;SDS011;21916;52.428;13.302;2024-01-15T00:16:24;17.85;;;6.97;;
35795;SDS011;21916;52.428;13.302;2024-01-15T00:18:50;18.45;;;5.85;;
35795;SDS011;21916;52.428;13.302;2024-01-15T00:21:15;13.07;;;5.57;;
35795;SDS011;21916;52.428;13.302;2024-01-15T00:23:43;12.82;;;7.10;;
35795;SDS011;21916;52.428;13.302;2024-01-15T00:26:11;15.40;;;6.95;;
35795;SDS011;21916;52.428;13.302;2024-01-15T00:28:38;12.98;;;6.57;;
35795;SDS011;21916;52.428;13.302;2024-01-15T00:31:04;12.93;;;6.20;;
35795;SDS011;21916;52.428;13.302;2024-01-15T00:33:30;11.60;;;5.40;;
35795;SDS011;21916;52.428;13.302;2024-01-15T00:35:56;14.43;;;7.07;;
35795;SDS011;21916;52.428;13.302;2024-01-15T00:38:22;14.27;;;6.47;;
35795;SDS011;21916;52.428;13.302;2024-01-15T00:40:48;13.40;;;7.07;;
35795;SDS011;21916;52.428;13.302;2024-01-15T00:43:13;13.93;;;6.78;;
35795;SDS011;21916;52.428;13.302;2024-01-15T00:45:40;14.20;;;6.10;;
35795;SDS011;21916;52.428;13.302;2024-01-15T00:48:05;11.88;;;6.65;;
35795;SDS011;21916;52.428;13.302;2024-01-15T00:50:31;10.32;;;5.40;;
35795;SDS011;21916;52.428;13.302;2024-01-15T00:52:57;15.15;;;5.07;;
35795;SDS011;21916;52.428;13.302;2024-01-15T00:55:22;9.50;;;5.80;;
35795;SDS011;21916;52.428;13.302;2024-01-15T00:57:48;11.10;;;6.80;;
35795;SDS011;21916;52.428;13.302;2024-01-15T01:00:14;9.23;;;4.75;;
35795;SDS011;21916;52.428;13.302;2024-01-15T01:02:40;8.38;;;3.60;;
35795;SDS011;21916;52.428;13.302;2024-01-15T01:05:06;10.38;;;4.72;;
35795;SDS011;21916;52.428;13.302;2024-01-15T01:07:32;10.70;;;6.10;;
35795;SDS011;21916;52.428;13.302;2024-01-15T01:09:57;7.45;;;3.92;;
35795;SDS011;21916;52.428;13.302;2024-01-15T01:12:23;12.35;;;4.60;;
35795;SDS011;21916;52.428;13.302;2024-01-15T01:14:49;8.98;;;4.50;;
35795;SDS011;21916;52.428;13.302;2024-01-15T01:17:15;15.52;;;5.88;;
35795;SDS011;21916;52.428;13.302;2024-01-15T01:19:40;10.57;;;5.25;;
35795;SDS011;21916;52.428;13.302;2024-01-15T01:22:06;9.88;;;5.03;;
35795;SDS011;21916;52.428;13.302;2024-01-15T01:24:31;8.82;;;4.90;;
35795;SDS011;21916;52.428;13.302;2024-01-15T01:26:58;9.60;;;3.95;;
35795;SDS011;21916;52.428;13.302;2024-01-15T01:29:24;6.43;;;3.97;;
35795;SDS011;21916;52.428;13.302;2024-01-15T01:31:51;10.93;;;5.15;;
35795;SDS011;21916;52.428;13.302;2024-01-15T01:34:17;9.45;;;5.40;;
35795;SDS011;21916;52.428;13.302;2024-01-15T01:36:43;9.43;;;5.22;;
35795;SDS011;21916;52.428;13.302;2024-01-15T01:39:09;14.48;;;6.07;;
35795;SDS011;21916;52.428;13.302;2024-01-15T01:41:35;16.73;;;6.10;;
35795;SDS011;21916;52.428;13.302;2024-01-15T01:44:00;9.32;;;6.30;;
35795;SDS011;21916;52.428;13.302;2024-01-15T01:46:27;17.25;;;6.35;;
35795;SDS011;21916;52.428;13.302;2024-01-15T01:48:53;14.90;;;6.53;;
35795;SDS011;21916;52.428;13.302;2024-01-15T01:51:20;21.48;;;7.60;;
35795;SDS011;21916;52.428;13.302;2024-01-15T01:53:47;22.73;;;7.35;;
35795;SDS011;21916;52.428;13.302;2024-01-15T01:56:14;11.98;;;6.63;;
35795;SDS011;21916;52.428;13.302;2024-01-15T01:58:41;11.30;;;6.38;;
35795;SDS011;21916;52.428;13.302;2024-01-15T02:01:08;13.93;;;7.28;;
35795;SDS011;21916;52.428;13.302;2024-01-15T02:03:34;12.48;;;6.82;;
35795;SDS011;21916;52.428;13.302;2024-01-15T02:06:00;13.57;;;6.93;;
35795;SDS011;21916;52.428;13.302;2024-01-15T02:08:26;14.55;;;6.85;;
35795;SDS011;21916;52.428;13.302;2024-01-15T02:10:52;11.18;;;5.45;;
35795;SDS011;21916;52.428;13.302;2024-01-15T02:13:18;8.43;;;4.70;;
35795;SDS011;21916;52.428;13.302;2024-01-15T02:15:45;13.95;;;6.32;;
35795;SDS011;21916;52.428;13.302;2024-01-15T02:18:11;8.07;;;4.20;;
35795;SDS011;21916;52.428;13.302;2024-01-15T02:20:36;13.32;;;6.60;;
35795;SDS011;21916;52.428;13.302;2024-01-15T02:23:09;13.35;;;7.68;;
35795;SDS011;21916;52.428;13.302;2024-01-15T02:28:03;8.07;;;4.55;;
35795;SDS011;21916;52.428;13.302;2024-01-15T02:30:29;11.55;;;5.20;;
35795;SDS011;21916;52.428;13.302;2024-01-15T02:32:56;12.70;;;6.07;;
35795;SDS011;21916;52.428;13.302;2024-01-15T02:35:22;11.15;;;4.72;;
35795;SDS011;21916;52.428;13.302;2024-01-15T02:37:48;10.25;;;5.03;;
35795;SDS011;21916;52.428;13.302;2024-01-15T02:40:14;9.02;;;4.35;;
35795;SDS011;21916;52.428;13.302;2024-01-15T02:42:39;9.60;;;4.40;;
35795;SDS011;21916;52.428;13.302;2024-01-15T02:45:06;12.48;;;6.10;;
35795;SDS011;21916;52.428;13.302;2024-01-15T02:47:31;11.88;;;4.55;;
35795;SDS011;21916;52.428;13.302;2024-01-15T02:49:57;16.17;;;7.20;;
35795;SDS011;21916;52.428;13.302;2024-01-15T02:52:23;10.15;;;4.97;;
35795;SDS011;21916;52.428;13.302;2024-01-15T02:54:48;14.02;;;6.47;;
35795;SDS011;21916;52.428;13.302;2024-01-15T02:57:14;7.22;;;4.38;;
35795;SDS011;21916;52.428;13.302;2024-01-15T02:59:40;10.88;;;5.90;;
35795;SDS011;21916;52.428;13.302;2024-01-15T03:02:05;11.63;;;5.50;;
35795;SDS011;21916;52.428;13.302;2024-01-15T03:04:31;11.27;;;5.40;;
35795;SDS011;21916;52.428;13.302;2024-01-15T03:06:57;14.65;;;5.57;;
35795;SDS011;21916;52.428;13.302;2024-01-15T03:09:22;9.90;;;5.30;;
35795;SDS011;21916;52.428;13.302;2024-01-15T03:11:48;10.25;;;3.75;;
35795;SDS011;21916;52.428;13.302;2024-01-15T03:14:14;10.40;;;4.85;;
35795;SDS011;21916;52.428;13.302;2024-01-15T03:16:40;5.93;;;3.10;;
35795;SDS011;21916;52.428;13.302;2024-01-15T03:19:06;10.15;;;4.15;;
35795;SDS011;21916;52.428;13.302;2024-01-15T03:21:32;8.30;;;4.10;;
35795;SDS011;21916;52.428;13.302;2024-01-15T03:23:57;9.07;;;4.53;;
35795;SDS011;21916;52.428;13.302;2024-01-15T03:26:23;9.73;;;3.40;;
35795;SDS011;21916;52.428;13.302;2024-01-15T03:28:49;9.05;;;4.43;;
35795;SDS011;21916;52.428;13.302;2024-01-15T03:31:14;12.82;;;4.05;;
35795;SDS011;21916;52.428;13.302;2024-01-15T03:33:40;7.72;;;3.65;;
35795;SDS011;21916;52.428;13.302;2024-01-15T03:36:06;14.10;;;4.47;;
35795;SDS011;21916;52.428;13.302;2024-01-15T03:38:33;6.55;;;3.47;;
35795;SDS011;21916;52.428;13.302;2024-01-15T03:40:59;5.88;;;3.47;;
35795;SDS011;21916;52.428;13.302;2024-01-15T03:43:25;9.45;;;3.65;;
35795;SDS011;21916;52.428;13.302;2024-01-15T03:45:52;8.02;;;3.70;;
35795;SDS011;21916;52.428;13.302;2024-01-15T03:48:18;7.63;;;4.00;;
35795;SDS011;21916;52.428;13.302;2024-01-15T03:50:45;10.57;;;3.70;;
35795;SDS011;21916;52.428;13.302;2024-01-15T03:53:11;7.25;;;2.65;;
35795;SDS011;21916;52.428;13.302;2024-01-15T03:55:36;8.52;;;3.78;;
35795;SDS011;21916;52.428;13.302;2024-01-15T03:58:02;5.80;;;3.30;;
35795;SDS011;21916;52.428;13.302;2024-01-15T04:00:28;9.43;;;4.03;;
35795;SDS011;21916;52.428;13.302;2024-01-15T04:02:53;6.82;;;2.58;;
35795;SDS011;21916;52.428;13.302;2024-01-15T04:05:19;9.70;;;3.58;;
35795;SDS011;21916;52.428;13.302;2024-01-15T04:07:45;6.97;;;3.03;;
35795;SDS011;21916;52.428;13.302;2024-01-15T04:10:10;11.00;;;4.18;;
35795;SDS011;21916;52.428;13.302;2024-01-15T04:12:36;10.18;;;3.53;;
35795;SDS011;21916;52.428;13.302;2024-01-15T04:15:03;8.02;;;3.55;;
35795;SDS011;21916;52.428;13.302;2024-01-15T04:17:28;6.10;;;3.40;;
35795;SDS011;21916;52.428;13.302;2024-01-15T04:19:54;7.38;;;2.47;;
35795;SDS011;21916;52.428;13.302;2024-01-15T04:22:20;14.90;;;3.88;;
35795;SDS011;21916;52.428;13.302;2024-01-15T04:24:47;6.13;;;2.00;;
35795;SDS011;21916;52.428;13.302;2024-01-15T04:27:12;12.75;;;3.30;;
35795;SDS011;21916;52.428;13.302;2024-01-15T04:29:38;3.67;;;2.35;;
35795;SDS011;21916;52.428;13.302;2024-01-15T04:32:04;3.28;;;1.70;;
35795;SDS011;21916;52.428;13.302;2024-01-15T04:34:30;6.75;;;2.90;;
35795;SDS011;21916;52.428;13.302;2024-01-15T04:36:56;6.78;;;1.88;;
35795;SDS011;21916;52.428;13.302;2024-01-15T04:39:22;10.60;;;2.65;;
35795;SDS011;21916;52.428;13.302;2024-01-15T04:41:48;7.22;;;2.22;;
35795;SDS011;21916;52.428;13.302;2024-01-15T04:44:13;11.95;;;3.00;;
35795;SDS011;21916;52.428;13.302;2024-01-15T04:46:39;4.85;;;1.67;;
35795;SDS011;21916;52.428;13.302;2024-01-15T04:49:05;7.90;;;1.95;;
35795;SDS011;21916;52.428;13.302;2024-01-15T04:51:30;5.53;;;1.55;;
35795;SDS011;21916;52.428;13.302;2024-01-15T04:53:56;7.03;;;2.55;;
35795;SDS011;21916;52.428;13.302;2024-01-15T04:56:22;2.95;;;1.27;;
35795;SDS011;21916;52.428;13.302;2024-01-15T04:58:47;4.50;;;1.80;;
35795;SDS011;21916;52.428;13.302;2024-01-15T05:01:15;7.47;;;2.08;;
35795;SDS011;21916;52.428;13.302;2024-01-15T05:03:41;8.57;;;1.95;;
35795;SDS011;21916;52.428;13.302;2024-01-15T05:06:07;6.80;;;2.22;;
35795;SDS011;21916;52.428;13.302;2024-01-15T05:08:33;2.35;;;1.63;;
35795;SDS011;21916;52.428;13.302;2024-01-15T05:10:59;6.75;;;1.88;;
35795;SDS011;21916;52.428;13.302;2024-01-15T05:13:25;6.03;;;1.45;;
35795;SDS011;21916;52.428;13.302;2024-01-15T05:15:50;5.97;;;1.48;;
35795;SDS011;21916;52.428;13.302;2024-01-15T05:18:16;8.57;;;2.88;;
35795;SDS011;21916;52.428;13.302;2024-01-15T05:20:42;7.38;;;1.88;;
35795;SDS011;21916;52.428;13.302;2024-01-15T05:23:08;5.68;;;1.98;;
35795;SDS011;21916;52.428;13.302;2024-01-15T05:25:33;5.10;;;1.88;;
35795;SDS011;21916;52.428;13.302;2024-01-15T05:27:59;7.90;;;2.35;;
35795;SDS011;21916;52.428;13.302;2024-01-15T05:30:25;8.80;;;1.45;;
35795;SDS011;21916;52.428;13.302;2024-01-15T05:32:50;5.28;;;1.92;;
35795;SDS011;21916;52.428;13.302;2024-01-15T05:35:16;5.43;;;2.33;;
35795;SDS011;21916;52.428;13.302;2024-01-15T05:37:43;7.40;;;2.38;;
35795;SDS011;21916;52.428;13.302;2024-01-15T05:40:12;8.52;;;2.35;;
35795;SDS011;21916;52.428;13.302;2024-01-15T05:42:39;3.80;;;1.05;;
35795;SDS011;21916;52.428;13.302;2024-01-15T05:45:05;4.97;;;1.48;;
35795;SDS011;21916;52.428;13.302;2024-01-15T05:47:31;3.58;;;1.42;;
35795;SDS011;21916;52.428;13.302;2024-01-15T05:49:57;11.15;;;2.40;;
35795;SDS011;21916;52.428;13.302;2024-01-15T05:52:23;6.30;;;1.83;;
35795;SDS011;21916;52.428;13.302;2024-01-15T05:54:49;3.40;;;1.48;;
35795;SDS011;21916;52.428;13.302;2024-01-15T05:57:15;5.13;;;2.03;;
35795;SDS011;21916;52.428;13.302;2024-01-15T05:59:44;11.88;;;2.28;;
35795;SDS011;21916;52.428;13.302;2024-01-15T06:02:10;10.40;;;1.50;;
35795;SDS011;21916;52.428;13.302;2024-01-15T06:04:36;5.85;;;1.83;;
35795;SDS011;21916;52.428;13.302;2024-01-15T06:07:02;19.02;;;2.10;;
35795;SDS011;21916;52.428;13.302;2024-01-15T06:09:28;7.50;;;1.77;;
35795;SDS011;21916;52.428;13.302;2024-01-15T06:11:54;3.03;;;1.52;;
35795;SDS011;21916;52.428;13.302;2024-01-15T06:14:20;3.15;;;1.30;;
35795;SDS011;21916;52.428;13.302;2024-01-15T06:16:46;4.25;;;1.40;;
35795;SDS011;21916;52.428;13.302;2024-01-15T06:19:11;5.00;;;1.35;;
35795;SDS011;21916;52.428;13.302;2024-01-15T06:21:37;5.70;;;1.33;;
35795;SDS011;21916;52.428;13.302;2024-01-15T06:24:03;4.38;;;1.55;;
35795;SDS011;21916;52.428;13.302;2024-01-15T06:26:29;7.57;;;1.35;;
35795;SDS011;21916;52.428;13.302;2024-01-15T06:28:56;6.10;;;2.40;;
35795;SDS011;21916;52.428;13.302;2024-01-15T06:31:22;7.13;;;1.27;;
35795;SDS011;21916;52.428;13.302;2024-01-15T06:33:48;1.55;;;0.73;;
35795;SDS011;21916;52.428;13.302;2024-01-15T06:36:14;4.22;;;1.20;;
35795;SDS011;21916;52.428;13.302;2024-01-15T06:38:42;6.45;;;2.03;;
35795;SDS011;21916;52.428;13.302;2024-01-15T06:41:09;8.10;;;1.55;;
35795;SDS011;21916;52.428;13.302;2024-01-15T06:43:34;4.55;;;0.85;;
35795;SDS011;21916;52.428;13.302;2024-01-15T06:46:00;5.90;;;1.52;;
35795;SDS011;21916;52.428;13.302;2024-01-15T06:48:26;13.02;;;1.45;;
35795;SDS011;21916;52.428;13.302;2024-01-15T06:50:52;9.15;;;1.48;;
35795;SDS011;21916;52.428;13.302;2024-01-15T06:53:17;4.38;;;1.23;;
35795;SDS011;21916;52.428;13.302;2024-01-15T06:55:43;2.65;;;1.70;;
35795;SDS011;21916;52.428;13.302;2024-01-15T06:58:09;1.70;;;0.50;;
35795;SDS011;21916;52.428;13.302;2024-01-15T07:00:35;1.35;;;0.68;;
35795;SDS011;21916;52.428;13.302;2024-01-15T07:03:00;2.90;;;1.10;;
35795;SDS011;21916;52.428;13.302;2024-01-15T07:05:27;2.40;;;1.20;;
35795;SDS011;21916;52.428;13.302;2024-01-15T07:07:55;7.50;;;0.90;;
35795;SDS011;21916;52.428;13.302;2024-01-15T07:10:20;2.72;;;1.13;;
35795;SDS011;21916;52.428;13.302;2024-01-15T07:12:46;8.18;;;2.50;;
35795;SDS011;21916;52.428;13.302;2024-01-15T07:15:12;3.28;;;0.65;;
35795;SDS011;21916;52.428;13.302;2024-01-15T07:17:38;8.68;;;1.60;;
35795;SDS011;21916;52.428;13.302;2024-01-15T07:20:05;5.88;;;1.48;;
35795;SDS011;21916;52.428;13.302;2024-01-15T07:22:33;10.00;;;2.33;;
35795;SDS011;21916;52.428;13.302;2024-01-15T07:25:00;5.20;;;1.25;;
35795;SDS011;21916;52.428;13.302;2024-01-15T07:27:26;5.88;;;0.70;;
35795;SDS011;21916;52.428;13.302;2024-01-15T07:29:51;6.40;;;1.00;;
35795;SDS011;21916;52.428;13.302;2024-01-15T07:32:17;1.85;;;0.63;;
35795;SDS011;21916;52.428;13.302;2024-01-15T07:34:43;6.78;;;1.38;;
35795;SDS011;21916;52.428;13.302;2024-01-15T07:37:08;4.63;;;1.13;;
35795;SDS011;21916;52.428;13.302;2024-01-15T07:39:34;4.00;;;1.20;;
35795;SDS011;21916;52.428;13.302;2024-01-15T07:42:00;5.85;;;2.20;;
35795;SDS011;21916;52.428;13.302;2024-01-15T07:44:26;14.15;;;1.08;;
35795;SDS011;21916;52.428;13.302;2024-01-15T07:46:53;8.25;;;1.02;;
35795;SDS011;21916;52.428;13.302;2024-01-15T07:49:18;2.45;;;0.95;;
35795;SDS011;21916;52.428;13.302;2024-01-15T07:51:44;9.40;;;1.65;;
35795;SDS011;21916;52.428;13.302;2024-01-15T07:54:10;4.13;;;1.00;;
35795;SDS011;21916;52.428;13.302;2024-01-15T07:56:52;3.22;;;1.40;;
35795;SDS011;21916;52.428;13.302;2024-01-15T07:59:19;16.55;;;1.25;;
35795;SDS011;21916;52.428;13.302;2024-01-15T08:01:44;6.03;;;1.00;;
35795;SDS011;21916;52.428;13.302;2024-01-15T08:04:10;5.50;;;0.95;;
35795;SDS011;21916;52.428;13.302;2024-01-15T08:06:37;2.55;;;1.05;;
35795;SDS011;21916;52.428;13.302;2024-01-15T08:09:03;6.20;;;1.52;;
35795;SDS011;21916;52.428;13.302;2024-01-15T08:11:29;16.50;;;1.75;;
35795;SDS011;21916;52.428;13.302;2024-01-15T08:13:55;1.98;;;0.80;;
35795;SDS011;21916;52.428;13.302;2024-01-15T08:16:21;4.28;;;1.05;;
35795;SDS011;21916;52.428;13.302;2024-01-15T08:18:47;5.38;;;1.50;;
35795;SDS011;21916;52.428;13.302;2024-01-15T08:21:13;3.75;;;0.90;;
35795;SDS011;21916;52.428;13.302;2024-01-15T08:23:39;1.90;;;0.82;;
35795;SDS011;21916;52.428;13.302;2024-01-15T08:26:04;3.00;;;1.33;;
35795;SDS011;21916;52.428;13.302;2024-01-15T08:28:30;6.18;;;0.75;;
35795;SDS011;21916;52.428;13.302;2024-01-15T08:30:56;7.72;;;0.93;;
35795;SDS011;21916;52.428;13.302;2024-01-15T08:33:21;4.13;;;1.30;;
35795;SDS011;21916;52.428;13.302;2024-01-15T08:35:47;8.07;;;1.67;;
35795;SDS011;21916;52.428;13.302;2024-01-15T08:38:13;7.45;;;1.58;;
35795;SDS011;21916;52.428;13.302;2024-01-15T08:40:40;5.80;;;1.40;;
35795;SDS011;21916;52.428;13.302;2024-01-15T08:43:06;6.65;;;1.13;;
35795;SDS011;21916;52.428;13.302;2024-01-15T08:45:32;2.33;;;0.88;;
35795;SDS011;21916;52.428;13.302;2024-01-15T08:47:58;8.35;;;1.30;;
35795;SDS011;21916;52.428;13.302;2024-01-15T08:50:23;2.35;;;0.75;;
35795;SDS011;21916;52.428;13.302;2024-01-15T08:52:49;18.88;;;1.40;;
35795;SDS011;21916;52.428;13.302;2024-01-15T08:55:15;6.80;;;1.73;;
35795;SDS011;21916;52.428;13.302;2024-01-15T08:57:40;4.97;;;0.70;;
35795;SDS011;21916;52.428;13.302;2024-01-15T09:00:06;3.88;;;0.98;;
35795;SDS011;21916;52.428;13.302;2024-01-15T09:02:35;4.72;;;0.98;;
35795;SDS011;21916;52.428;13.302;2024-01-15T09:05:01;7.13;;;1.20;;
35795;SDS011;21916;52.428;13.302;2024-01-15T09:07:27;3.67;;;0.98;;
35795;SDS011;21916;52.428;13.302;2024-01-15T09:09:53;4.25;;;1.00;;
35795;SDS011;21916;52.428;13.302;2024-01-15T09:12:18;3.80;;;0.80;;
35795;SDS011;21916;52.428;13.302;2024-01-15T09:14:49;10.60;;;1.08;;
35795;SDS011;21916;52.428;13.302;2024-01-15T09:17:15;8.05;;;1.20;;
35795;SDS011;21916;52.428;13.302;2024-01-15T09:19:41;2.78;;;0.98;;
35795;SDS011;21916;52.428;13.302;2024-01-15T09:22:08;2.78;;;1.00;;
35795;SDS011;21916;52.428;13.302;2024-01-15T09:24:33;2.47;;;0.98;;
35795;SDS011;21916;52.428;13.302;2024-01-15T09:26:59;4.72;;;1.40;;
35795;SDS011;21916;52.428;13.302;2024-01-15T09:29:25;3.63;;;1.38;;
35795;SDS011;21916;52.428;13.302;2024-01-15T09:31:51;4.70;;;1.00;;
35795;SDS011;21916;52.428;13.302;2024-01-15T09:34:17;7.32;;;1.15;;
35795;SDS011;21916;52.428;13.302;2024-01-15T09:36:43;5.78;;;1.20;;
35795;SDS011;21916;52.428;13.302;2024-01-15T09:39:09;0.75;;;0.63;;
35795;SDS011;21916;52.428;13.302;2024-01-15T09:41:36;6.95;;;1.27;;
35795;SDS011;21916;52.428;13.302;2024-01-15T09:44:03;1.85;;;0.63;;
35795;SDS011;21916;52.428;13.302;2024-01-15T09:46:30;7.78;;;2.15;;
35795;SDS011;21916;52.428;13.302;2024-01-15T09:48:57;5.15;;;1.27;;
35795;SDS011;21916;52.428;13.302;2024-01-15T09:51:24;2.20;;;0.73;;
35795;SDS011;21916;52.428;13.302;2024-01-15T09:53:50;1.30;;;0.60;;
35795;SDS011;21916;52.428;13.302;2024-01-15T09:56:16;7.82;;;1.45;;
35795;SDS011;21916;52.428;13.302;2024-01-15T09:58:41;2.58;;;1.02;;
35795;SDS011;21916;52.428;13.302;2024-01-15T10:01:08;5.25;;;1.00;;
35795;SDS011;21916;52.428;13.302;2024-01-15T10:03:34;6.88;;;1.25;;
35795;SDS011;21916;52.428;13.302;2024-01-15T10:06:00;4.10;;;0.52;;
35795;SDS011;21916;52.428;13.302;2024-01-15T10:08:27;2.95;;;1.33;;
35795;SDS011;21916;52.428;13.302;2024-01-15T10:10:53;3.90;;;1.27;;
35795;SDS011;21916;52.428;13.302;2024-01-15T10:13:19;0.80;;;0.45;;
35795;SDS011;21916;52.428;13.302;2024-01-15T10:15:46;2.47;;;0.70;;
35795;SDS011;21916;52.428;13.302;2024-01-15T10:18:15;3.58;;;0.85;;
35795;SDS011;21916;52.428;13.302;2024-01-15T10:20:40;2.55;;;1.08;;
35795;SDS011;21916;52.428;13.302;2024-01-15T10:23:07;3.13;;;1.15;;
35795;SDS011;21916;52.428;13.302;2024-01-15T10:25:35;2.70;;;0.52;;
35795;SDS011;21916;52.428;13.302;2024-01-15T10:28:01;2.70;;;1.00;;
35795;SDS011;21916;52.428;13.302;2024-01-15T10:30:29;5.80;;;1.10;;
35795;SDS011;21916;52.428;13.302;2024-01-15T10:32:58;1.63;;;0.70;;
35795;SDS011;21916;52.428;13.302;2024-01-15T10:35:29;3.22;;;0.80;;
35795;SDS011;21916;52.428;13.302;2024-01-15T10:37:56;2.90;;;0.65;;
35795;SDS011;21916;52.428;13.302;2024-01-15T10:40:21;3.80;;;0.75;;
35795;SDS011;21916;52.428;13.302;2024-01-15T10:42:47;5.90;;;0.85;;
35795;SDS011;21916;52.428;13.302;2024-01-15T10:45:13;2.15;;;0.80;;
35795;SDS011;21916;52.428;13.302;2024-01-15T10:47:40;2.75;;;0.80;;
35795;SDS011;21916;52.428;13.302;2024-01-15T10:50:07;5.47;;;0.80;;
35795;SDS011;21916;52.428;13.302;2024-01-15T10:52:35;2.15;;;0.73;;
35795;SDS011;21916;52.428;13.302;2024-01-15T10:55:14;5.97;;;2.67;;
35795;SDS011;21916;52.428;13.302;2024-01-15T10:57:39;2.53;;;0.70;;
35795;SDS011;21916;52.428;13.302;2024-01-15T11:00:05;1.27;;;0.38;;
35795;SDS011;21916;52.428;13.302;2024-01-15T11:02:33;11.40;;;1.33;;
35795;SDS011;21916;52.428;13.302;2024-01-15T11:05:01;3.05;;;0.60;;
35795;SDS011;21916;52.428;13.302;2024-01-15T11:07:26;1.15;;;0.70;;
35795;SDS011;21916;52.428;13.302;2024-01-15T11:09:52;1.10;;;0.63;;
35795;SDS011;21916;52.428;13.302;2024-01-15T11:12:18;1.73;;;0.70;;
35795;SDS011;21916;52.428;13.302;2024-01-15T11:14:48;3.15;;;0.68;;
35795;SDS011;21916;52.428;13.302;2024-01-15T11:17:15;0.38;;;0.38;;
35795;SDS011;21916;52.428;13.302;2024-01-15T11:19:42;1.60;;;0.68;;
35795;SDS011;21916;52.428;13.302;2024-01-15T11:22:09;1.17;;;0.55;;
35795;SDS011;21916;52.428;13.302;2024-01-15T11:25:14;2.38;;;0.80;;
35795;SDS011;21916;52.428;13.302;2024-01-15T11:27:44;3.78;;;0.82;;
35795;SDS011;21916;52.428;13.302;2024-01-15T11:30:17;8.02;;;0.77;;
35795;SDS011;21916;52.428;13.302;2024-01-15T11:32:45;1.27;;;0.70;;
35795;SDS011;21916;52.428;13.302;2024-01-15T11:35:11;1.70;;;0.95;;
35795;SDS011;21916;52.428;13.302;2024-01-15T11:43:01;3.63;;;0.95;;
35795;SDS011;21916;52.428;13.302;2024-01-15T11:45:28;5.88;;;1.10;;
35795;SDS011;21916;52.428;13.302;2024-01-15T11:48:05;1.65;;;0.65;;
35795;SDS011;21916;52.428;13.302;2024-01-15T11:50:34;4.55;;;1.42;;
35795;SDS011;21916;52.428;13.302;2024-01-15T11:53:00;0.70;;;0.60;;
35795;SDS011;21916;52.428;13.302;2024-01-15T11:55:34;1.52;;;0.60;;
35795;SDS011;21916;52.428;13.302;2024-01-15T11:58:07;1.58;;;0.93;;
35795;SDS011;21916;52.428;13.302;2024-01-15T12:00:40;0.82;;;0.70;;
35795;SDS011;21916;52.428;13.302;2024-01-15T12:03:08;0.50;;;0.40;;
35795;SDS011;21916;52.428;13.302;2024-01-15T12:05:36;6.00;;;1.30;;
35795;SDS011;21916;52.428;13.302;2024-01-15T12:08:02;1.75;;;0.75;;
35795;SDS011;21916;52.428;13.302;2024-01-15T12:10:28;2.00;;;0.95;;
35795;SDS011;21916;52.428;13.302;2024-01-15T12:12:58;1.38;;;0.70;;
35795;SDS011;21916;52.428;13.302;2024-01-15T12:15:35;1.15;;;0.70;;
35795;SDS011;21916;52.428;13.302;2024-01-15T12:18:02;1.25;;;0.50;;
35795;SDS011;21916;52.428;13.302;2024-01-15T12:20:29;1.50;;;0.80;;
35795;SDS011;21916;52.428;13.302;2024-01-15T12:22:55;3.05;;;0.73;;
35795;SDS011;21916;52.428;13.302;2024-01-15T12:25:21;1.77;;;1.08;;
35795;SDS011;21916;52.428;13.302;2024-01-15T12:27:48;1.92;;;0.85;;
35795;SDS011;21916;52.428;13.302;2024-01-15T12:30:14;1.15;;;0.63;;
35795;SDS011;21916;52.428;13.302;2024-01-15T12:32:43;9.20;;;1.02;;
35795;SDS011;21916;52.428;13.302;2024-01-15T12:35:09;2.10;;;1.02;;
35795;SDS011;21916;52.428;13.302;2024-01-15T12:37:36;0.85;;;0.50;;
35795;SDS011;21916;52.428;13.302;2024-01-15T12:40:06;0.68;;;0.50;;
35795;SDS011;21916;52.428;13.302;2024-01-15T12:42:41;1.00;;;0.52;;
35795;SDS011;21916;52.428;13.302;2024-01-15T12:45:07;0.90;;;0.70;;
35795;SDS011;21916;52.428;13.302;2024-01-15T12:47:34;0.68;;;0.50;;
35795;SDS011;21916;52.428;13.302;2024-01-15T12:50:01;3.25;;;0.50;;
35795;SDS011;21916;52.428;13.302;2024-01-15T12:52:27;1.88;;;1.40;;
35795;SDS011;21916;52.428;13.302;2024-01-15T12:54:53;2.42;;;0.52;;
35795;SDS011;21916;52.428;13.302;2024-01-15T12:57:19;2.03;;;0.63;;
35795;SDS011;21916;52.428;13.302;2024-01-15T12:59:45;1.73;;;0.82;;
35795;SDS011;21916;52.428;13.302;2024-01-15T13:02:12;1.25;;;0.85;;
35795;SDS011;21916;52.428;13.302;2024-01-15T13:04:38;1.15;;;0.85;;
35795;SDS011;21916;52.428;13.302;2024-01-15T13:07:05;1.17;;;0.57;;
35795;SDS011;21916;52.428;13.302;2024-01-15T13:09:32;1.33;;;0.60;;
35795;SDS011;21916;52.428;13.302;2024-01-15T13:11:59;0.45;;;0.40;;
35795;SDS011;21916;52.428;13.302;2024-01-15T13:14:24;7.75;;;1.13;;
35795;SDS011;21916;52.428;13.302;2024-01-15T13:16:50;0.70;;;0.45;;
35795;SDS011;21916;52.428;13.302;2024-01-15T13:19:16;1.13;;;0.75;;
35795;SDS011;21916;52.428;13.302;2024-01-15T13:21:42;2.00;;;1.10;;
35795;SDS011;21916;52.428;13.302;2024-01-15T13:24:08;2.47;;;0.68;;
35795;SDS011;21916;52.428;13.302;2024-01-15T13:26:35;2.28;;;0.90;;
35795;SDS011;21916;52.428;13.302;2024-01-15T13:29:03;1.90;;;0.93;;
35795;SDS011;21916;52.428;13.302;2024-01-15T13:31:30;5.32;;;1.08;;
35795;SDS011;21916;52.428;13.302;2024-01-15T13:33:56;3.83;;;1.33;;
35795;SDS011;21916;52.428;13.302;2024-01-15T13:36:22;4.97;;;1.30;;
35795;SDS011;21916;52.428;13.302;2024-01-15T13:38:49;4.55;;;1.35;;
35795;SDS011;21916;52.428;13.302;2024-01-15T13:41:15;3.67;;;1.05;;
35795;SDS011;21916;52.428;13.302;2024-01-15T13:43:41;3.75;;;1.50;;
35795;SDS011;21916;52.428;13.302;2024-01-15T13:46:07;1.92;;;1.08;;
35795;SDS011;21916;52.428;13.302;2024-01-15T13:48:32;1.30;;;0.93;;
35795;SDS011;21916;52.428;13.302;2024-01-15T13:50:58;3.63;;;1.30;;
35795;SDS011;21916;52.428;13.302;2024-01-15T13:53:24;3.50;;;1.48;;
35795;SDS011;21916;52.428;13.302;2024-01-15T13:55:51;1.00;;;0.63;;
35795;SDS011;21916;52.428;13.302;2024-01-15T13:58:17;2.13;;;1.20;;
35795;SDS011;21916;52.428;13.302;2024-01-15T14:00:43;4.18;;;1.83;;
35795;SDS011;21916;52.428;13.302;2024-01-15T14:03:09;1.83;;;1.20;;
35795;SDS011;21916;52.428;13.302;2024-01-15T14:05:35;4.18;;;1.38;;
35795;SDS011;21916;52.428;13.302;2024-01-15T14:08:01;0.77;;;0.60;;
35795;SDS011;21916;52.428;13.302;2024-01-15T14:10:27;4.97;;;1.73;;
35795;SDS011;21916;52.428;13.302;2024-01-15T14:12:52;3.33;;;1.38;;
35795;SDS011;21916;52.428;13.302;2024-01-15T14:15:18;3.83;;;1.80;;
35795;SDS011;21916;52.428;13.302;2024-01-15T14:17:46;5.57;;;1.48;;
35795;SDS011;21916;52.428;13.302;2024-01-15T14:20:12;4.38;;;1.88;;
35795;SDS011;21916;52.428;13.302;2024-01-15T14:22:38;2.13;;;0.93;;
35795;SDS011;21916;52.428;13.302;2024-01-15T14:25:04;3.35;;;1.05;;
35795;SDS011;21916;52.428;13.302;2024-01-15T14:27:30;2.25;;;1.00;;
35795;SDS011;21916;52.428;13.302;2024-01-15T14:29:56;3.95;;;0.90;;
35795;SDS011;21916;52.428;13.302;2024-01-15T14:32:21;2.50;;;0.90;;
35795;SDS011;21916;52.428;13.302;2024-01-15T14:34:47;4.85;;;1.60;;